Time;durP1;ratioP1;P1;durP2;ratioP2;P2;SDS_P1;SDS_P2;PMS_P1;PMS_P2;Temp;Humidity;BMP_temperature;BMP_pressure;BME280_temperature;BME280_humidity;BME280_pressure;Samples;Min_cycle;Max_cycle;Signal;HPM_P1;HPM_P2
2021/01/08 00:01:46;;;;;;;84.13;51.05;;;2.40;99.20;;;;;;5114983;28;20187;-81
2021/01/08 00:04:12;;;;;;;78.53;48.75;;;2.40;99.20;;;;;;5114428;28;20317;-81
2021/01/08 00:06:37;;;;;;;72.17;46.43;;;2.40;99.30;;;;;;5096372;28;20644;-81
2021/01/08 00:09:04;;;;;;;65.50;45.20;;;2.30;99.50;;;;;;5096221;28;20432;-81
2021/01/08 00:11:29;;;;;;;68.60;45.05;;;2.40;99.50;;;;;;5114450;28;20207;-81
2021/01/08 00:13:55;;;;;;;72.70;45.93;;;2.30;99.70;;;;;;5114421;28;20674;-81
2021/01/08 00:16:21;;;;;;;64.03;44.93;;;2.30;99.70;;;;;;5114659;28;20498;-81
2021/01/08 00:18:46;;;;;;;67.60;45.27;;;2.30;99.90;;;;;;5114230;28;20188;-81
2021/01/08 00:21:15;;;;;;;71.33;45.73;;;2.40;99.80;;;;;;5114599;28;20183;-81
2021/01/08 00:23:41;;;;;;;62.42;43.88;;;2.30;99.70;;;;;;5114158;28;20397;-81
2021/01/08 00:26:06;;;;;;;64.50;44.00;;;2.30;99.90;;;;;;5114447;28;20568;-81
2021/01/08 00:28:32;;;;;;;61.77;42.27;;;2.30;99.90;;;;;;5096174;28;20275;-81
2021/01/08 00:30:58;;;;;;;57.73;40.20;;;2.40;99.50;;;;;;5096300;28;20222;-81
2021/01/08 00:33:24;;;;;;;60.00;41.70;;;2.30;99.70;;;;;;5114086;28;20183;-81
2021/01/08 00:35:49;;;;;;;55.35;38.75;;;2.20;99.90;;;;;;5095635;28;20237;-81
2021/01/08 00:38:15;;;;;;;58.67;39.63;;;2.20;99.90;;;;;;5113728;28;20188;-81
2021/01/08 00:40:41;;;;;;;52.57;38.40;;;2.20;99.90;;;;;;5113826;28;20591;-81
2021/01/08 00:43:06;;;;;;;56.40;40.50;;;2.30;99.90;;;;;;5113887;28;20180;-81
2021/01/08 00:45:32;;;;;;;52.30;37.40;;;2.30;99.70;;;;;;5086407;28;20696;-81
2021/01/08 00:47:59;;;;;;;54.57;37.30;;;2.30;99.90;;;;;;5093585;28;20192;-81
2021/01/08 00:50:24;;;;;;;54.15;37.25;;;2.30;99.50;;;;;;5093549;28;20409;-81
2021/01/08 00:52:50;;;;;;;51.13;36.87;;;2.20;99.60;;;;;;5093417;28;20187;-81
2021/01/08 00:55:15;;;;;;;47.37;34.73;;;2.20;99.80;;;;;;5075392;28;20196;-81
2021/01/08 00:57:41;;;;;;;52.70;36.47;;;2.20;99.90;;;;;;5093251;28;20188;-81
2021/01/08 01:00:09;;;;;;;54.20;37.93;;;2.20;99.90;;;;;;5094715;28;20172;-81
2021/01/08 01:02:35;;;;;;;48.63;35.25;;;2.30;99.90;;;;;;5097645;28;20271;-81
2021/01/08 01:05:01;;;;;;;53.20;36.17;;;2.30;99.90;;;;;;5079371;28;20656;-81
2021/01/08 01:07:27;;;;;;;54.05;35.08;;;2.30;99.90;;;;;;5097368;28;20458;-81
2021/01/08 01:09:52;;;;;;;52.30;35.00;;;2.30;99.80;;;;;;5097413;28;20268;-81
2021/01/08 01:12:18;;;;;;;54.70;34.97;;;2.30;99.90;;;;;;5079182;28;20652;-81
2021/01/08 01:14:44;;;;;;;48.40;34.43;;;2.30;99.90;;;;;;5097351;28;20652;-81
2021/01/08 01:17:11;;;;;;;51.17;36.95;;;2.30;99.90;;;;;;5079208;28;20193;-81
2021/01/08 01:19:37;;;;;;;49.65;35.95;;;2.30;99.90;;;;;;5097420;28;20582;-81
2021/01/08 01:22:03;;;;;;;53.67;36.58;;;2.30;99.90;;;;;;5078815;28;20196;-81
2021/01/08 01:24:29;;;;;;;62.00;41.25;;;2.30;99.90;;;;;;5097303;28;20191;-81
2021/01/08 01:26:58;;;;;;;70.33;41.10;;;2.30;99.90;;;;;;5097234;28;20185;-81
2021/01/08 01:29:24;;;;;;;77.15;45.30;;;2.30;99.90;;;;;;5078798;28;20192;-81
2021/01/08 01:31:49;;;;;;;99.20;53.77;;;2.20;99.90;;;;;;5097510;28;20201;-81
2021/01/08 01:34:15;;;;;;;78.90;47.90;;;2.20;99.90;;;;;;5078847;28;20412;-81
2021/01/08 01:36:41;;;;;;;54.43;36.90;;;2.30;99.90;;;;;;5097307;28;20384;-81
2021/01/08 01:39:06;;;;;;;51.23;36.37;;;2.40;99.90;;;;;;5078643;28;20279;-81
2021/01/08 01:41:32;;;;;;;44.80;32.73;;;2.30;99.90;;;;;;5078853;28;20641;-81
2021/01/08 01:43:59;;;;;;;43.90;32.87;;;2.40;99.80;;;;;;5078642;28;20250;-81
2021/01/08 01:46:25;;;;;;;50.15;33.65;;;2.40;99.90;;;;;;5096458;28;20216;-81
2021/01/08 01:48:51;;;;;;;48.10;32.97;;;2.30;99.90;;;;;;5078517;28;20265;-81
2021/01/08 01:51:19;;;;;;;40.67;29.27;;;2.30;99.90;;;;;;5096867;28;20423;-81
2021/01/08 01:53:45;;;;;;;46.17;31.25;;;2.30;99.80;;;;;;5096511;28;20193;-81
2021/01/08 01:56:11;;;;;;;40.22;28.65;;;2.30;99.90;;;;;;5097031;28;20229;-81
2021/01/08 01:58:37;;;;;;;40.47;29.20;;;2.30;99.90;;;;;;5078317;28;20295;-81
2021/01/08 02:01:03;;;;;;;37.60;27.20;;;2.40;99.80;;;;;;5096530;28;20180;-81
2021/01/08 02:03:32;;;;;;;38.70;27.77;;;2.30;99.70;;;;;;5096471;28;20428;-80
2021/01/08 02:06:02;;;;;;;37.17;25.95;;;2.30;99.60;;;;;;5078107;28;20548;-81
2021/01/08 02:08:28;;;;;;;38.30;25.83;;;2.30;99.80;;;;;;5078111;28;20196;-81
2021/01/08 02:10:57;;;;;;;38.03;27.20;;;2.30;99.90;;;;;;5096065;28;20577;-81
2021/01/08 02:13:32;;;;;;;34.25;25.67;;;2.20;99.80;;;;;;5078057;28;20188;-81
2021/01/08 02:15:59;;;;;;;34.83;24.40;;;2.20;99.90;;;;;;5078348;28;20180;-81
2021/01/08 02:18:27;;;;;;;34.08;24.80;;;2.20;99.90;;;;;;5096041;28;20223;-80
2021/01/08 02:20:55;;;;;;;36.08;25.08;;;2.20;99.90;;;;;;5096496;28;20180;-81
2021/01/08 02:23:38;;;;;;;37.58;26.35;;;2.20;99.90;;;;;;5095969;28;20257;-81
2021/01/08 02:26:04;;;;;;;35.03;26.17;;;2.20;99.90;;;;;;5078129;28;20191;-81
2021/01/08 02:28:30;;;;;;;33.42;24.70;;;2.30;99.90;;;;;;5077814;28;20201;-81
2021/01/08 02:30:55;;;;;;;31.40;23.87;;;2.40;99.70;;;;;;5096071;28;20207;-81
2021/01/08 02:33:23;;;;;;;31.53;24.97;;;2.40;99.80;;;;;;5077701;28;20200;-81
2021/01/08 02:35:50;;;;;;;33.45;23.60;;;2.40;99.60;;;;;;5095988;28;20233;-81
2021/01/08 02:38:18;;;;;;;36.10;25.10;;;2.50;99.90;;;;;;5095851;28;20227;-80
2021/01/08 02:40:45;;;;;;;29.85;23.30;;;2.50;99.50;;;;;;5077659;28;20185;-81
2021/01/08 02:43:14;;;;;;;33.55;23.75;;;2.50;99.50;;;;;;5095733;28;20189;-81
2021/01/08 02:45:40;;;;;;;33.78;23.70;;;2.50;99.50;;;;;;5091833;28;20651;-81
2021/01/08 02:48:07;;;;;;;31.67;22.25;;;2.50;99.70;;;;;;5095882;28;20261;-81
2021/01/08 02:50:32;;;;;;;30.98;22.60;;;2.50;99.60;;;;;;5077277;28;20184;-81
2021/01/08 02:53:02;;;;;;;31.90;22.60;;;2.50;99.50;;;;;;5095600;28;20218;-81
2021/01/08 02:55:33;;;;;;;31.80;23.92;;;2.50;99.40;;;;;;5077374;28;20317;-81
2021/01/08 02:58:02;;;;;;;36.03;23.50;;;2.50;99.70;;;;;;5077172;28;20279;-81
2021/01/08 03:00:29;;;;;;;33.25;22.20;;;2.50;99.70;;;;;;5095566;28;20192;-81
2021/01/08 03:02:57;;;;;;;28.10;22.00;;;2.40;99.40;;;;;;5095448;28;20177;-81
2021/01/08 03:05:23;;;;;;;31.48;22.10;;;2.50;99.50;;;;;;5077178;28;20187;-81
2021/01/08 03:07:50;;;;;;;30.17;21.50;;;2.40;99.60;;;;;;5095194;28;20184;-81
2021/01/08 03:10:18;;;;;;;29.52;22.25;;;2.40;99.60;;;;;;5095152;28;20176;-81
2021/01/08 03:12:59;;;;;;;32.58;23.77;;;2.40;99.60;;;;;;5076755;28;20238;-81
2021/01/08 03:15:25;;;;;;;29.58;22.73;;;2.40;99.60;;;;;;5095216;28;20258;-81
2021/01/08 03:17:51;;;;;;;32.60;23.07;;;2.30;99.80;;;;;;5094865;28;20172;-81
2021/01/08 03:20:16;;;;;;;32.72;22.80;;;2.30;99.70;;;;;;5076981;28;20188;-81
2021/01/08 03:22:42;;;;;;;35.20;23.70;;;2.40;99.90;;;;;;5094041;28;20222;-81
2021/01/08 03:25:08;;;;;;;35.63;24.33;;;2.30;99.70;;;;;;5095060;28;20936;-81
2021/01/08 03:27:34;;;;;;;35.90;22.75;;;2.40;99.80;;;;;;5076710;28;20188;-81
2021/01/08 03:30:00;;;;;;;30.10;21.93;;;2.40;99.60;;;;;;5076562;28;20192;-81
2021/01/08 03:32:25;;;;;;;28.80;20.87;;;2.40;99.40;;;;;;5076538;28;20311;-81
2021/01/08 03:34:51;;;;;;;31.43;21.00;;;2.40;99.80;;;;;;5094600;28;20249;-81
2021/01/08 03:37:36;;;;;;;32.63;22.80;;;2.40;99.30;;;;;;5076035;28;20188;-81
2021/01/08 03:40:04;;;;;;;26.85;20.90;;;2.40;99.30;;;;;;5074091;28;20177;-81
2021/01/08 03:42:30;;;;;;;30.40;21.50;;;2.40;99.20;;;;;;5056285;28;20193;-81
2021/01/08 03:44:55;;;;;;;30.43;22.33;;;2.50;99.20;;;;;;5056447;28;20223;-81
2021/01/08 03:47:21;;;;;;;30.93;23.00;;;2.50;99.20;;;;;;5056244;28;20330;-81
2021/01/08 03:49:47;;;;;;;31.43;23.27;;;2.50;99.30;;;;;;5074237;28;20181;-81
2021/01/08 03:52:12;;;;;;;36.57;24.67;;;2.40;99.30;;;;;;5074081;28;20201;-81
2021/01/08 03:54:38;;;;;;;32.67;22.97;;;2.40;99.60;;;;;;5056040;28;20223;-81
2021/01/08 03:57:04;;;;;;;31.93;22.57;;;2.50;99.30;;;;;;5074137;28;20177;-81
2021/01/08 03:59:29;;;;;;;32.90;23.67;;;2.50;99.30;;;;;;5074086;28;20183;-81
2021/01/08 04:01:55;;;;;;;34.47;23.00;;;2.50;99.30;;;;;;5056108;28;20505;-81
2021/01/08 04:04:21;;;;;;;31.13;21.70;;;2.50;99.20;;;;;;5056030;28;20185;-81
2021/01/08 04:06:46;;;;;;;33.07;21.73;;;2.50;99.10;;;;;;5056241;28;20393;-81
2021/01/08 04:09:12;;;;;;;30.37;22.23;;;2.60;99.10;;;;;;5055925;28;20255;-81
2021/01/08 04:11:38;;;;;;;30.07;21.63;;;2.60;99.00;;;;;;5074138;28;20205;-81
2021/01/08 04:14:04;;;;;;;32.50;22.83;;;2.60;98.90;;;;;;5073748;28;20169;-81
2021/01/08 04:16:38;;;;;;;29.77;21.27;;;2.60;98.80;;;;;;5056050;28;20189;-81
2021/01/08 04:19:04;;;;;;;30.02;22.65;;;2.60;98.70;;;;;;5073775;28;20215;-81
2021/01/08 04:21:30;;;;;;;34.58;23.77;;;2.60;98.80;;;;;;5074027;28;20264;-81
2021/01/08 04:23:55;;;;;;;35.00;23.80;;;2.50;98.90;;;;;;5055638;28;20622;-81
2021/01/08 04:26:21;;;;;;;32.63;24.90;;;2.50;99.20;;;;;;5055778;28;20279;-81
2021/01/08 04:28:47;;;;;;;31.17;23.27;;;2.60;99.00;;;;;;5073451;28;20548;-81
2021/01/08 04:31:14;;;;;;;30.53;22.40;;;2.60;98.40;;;;;;5055685;28;20209;-81
2021/01/08 04:33:40;;;;;;;30.13;23.33;;;2.60;98.70;;;;;;5073511;28;20418;-81
2021/01/08 04:36:10;;;;;;;34.20;23.38;;;2.60;98.70;;;;;;5091026;28;20206;-80
2021/01/08 04:38:37;;;;;;;32.28;22.55;;;2.60;98.40;;;;;;5075616;28;20188;-81
2021/01/08 04:41:04;;;;;;;28.98;21.70;;;2.60;98.40;;;;;;5093880;28;20187;-81
2021/01/08 04:43:30;;;;;;;28.75;20.85;;;2.50;98.60;;;;;;5093569;28;20173;-81
2021/01/08 04:46:03;;;;;;;31.97;22.93;;;2.50;98.70;;;;;;5101328;28;20230;-81
2021/01/08 04:48:30;;;;;;;28.58;21.60;;;2.50;98.70;;;;;;5095550;28;20282;-81
2021/01/08 04:50:58;;;;;;;29.88;22.40;;;2.50;98.50;;;;;;5114090;28;20257;-81
2021/01/08 04:53:26;;;;;;;32.28;22.40;;;2.50;98.50;;;;;;5113811;28;20184;-81
2021/01/08 04:55:52;;;;;;;34.95;22.08;;;2.60;98.40;;;;;;5095723;28;20194;-81
2021/01/08 04:58:19;;;;;;;30.80;21.98;;;2.60;98.40;;;;;;5095800;28;20591;-81
2021/01/08 05:00:45;;;;;;;31.20;21.65;;;2.60;98.40;;;;;;5095319;28;20218;-81
2021/01/08 05:03:11;;;;;;;29.55;22.08;;;2.50;98.40;;;;;;5113665;28;20184;-81
2021/01/08 05:05:36;;;;;;;32.57;22.80;;;2.60;98.90;;;;;;5095718;28;20282;-81
2021/01/08 05:08:02;;;;;;;31.67;22.47;;;2.50;98.40;;;;;;5113568;28;20203;-81
2021/01/08 05:10:27;;;;;;;28.73;20.33;;;2.50;98.30;;;;;;5113768;28;20183;-81
2021/01/08 05:12:53;;;;;;;30.60;21.43;;;2.50;98.30;;;;;;5095445;28;20199;-81
2021/01/08 05:15:27;;;;;;;30.80;21.07;;;2.50;98.70;;;;;;5113691;28;20184;-81
2021/01/08 05:17:53;;;;;;;32.38;24.23;;;2.50;98.40;;;;;;5106242;28;20172;-81
2021/01/08 05:20:19;;;;;;;28.25;20.85;;;2.50;98.20;;;;;;5095378;28;20656;-81
2021/01/08 05:22:45;;;;;;;30.58;21.67;;;2.50;98.30;;;;;;5095204;28;20192;-81
2021/01/08 05:25:12;;;;;;;34.53;22.42;;;2.50;98.50;;;;;;5095505;28;20249;-81
2021/01/08 05:27:42;;;;;;;30.80;23.55;;;2.60;98.20;;;;;;5095377;28;20192;-81
2021/01/08 05:30:25;;;;;;;30.73;23.40;;;2.60;98.10;;;;;;5095409;28;20221;-81
2021/01/08 05:33:00;;;;;;;40.15;27.33;;;2.60;98.20;;;;;;5095187;28;20216;-81
2021/01/08 05:35:26;;;;;;;34.40;25.42;;;2.60;98.40;;;;;;5095318;28;20187;-81
2021/01/08 05:37:56;;;;;;;33.22;22.67;;;2.60;98.10;;;;;;5110932;28;20180;-81
2021/01/08 05:40:27;;;;;;;37.92;25.25;;;2.60;98.50;;;;;;5091293;28;20278;-81
2021/01/08 05:42:54;;;;;;;33.17;23.85;;;2.70;98.00;;;;;;5113388;28;20241;-81
2021/01/08 05:45:20;;;;;;;35.90;23.27;;;3.30;97.50;;;;;;5113317;28;20264;-81
2021/01/08 05:47:48;;;;;;;30.37;21.93;;;4.20;95.50;;;;;;5116934;28;20172;-81
2021/01/08 05:50:16;;;;;;;28.98;20.30;;;4.80;94.10;;;;;;5098952;28;20412;-81
2021/01/08 05:52:44;;;;;;;30.02;20.50;;;5.20;93.30;;;;;;5116896;28;20616;-81
2021/01/08 05:55:13;;;;;;;35.35;23.60;;;5.50;92.80;;;;;;5117072;28;20169;-81
2021/01/08 05:57:42;;;;;;;31.63;21.55;;;5.70;92.70;;;;;;5116934;28;20695;-81
2021/01/08 06:00:09;;;;;;;29.20;20.80;;;5.90;92.80;;;;;;5098540;28;20198;-81
2021/01/08 06:02:35;;;;;;;33.72;24.27;;;5.90;92.30;;;;;;5116862;28;20184;-81
2021/01/08 06:05:04;;;;;;;31.77;23.20;;;4.40;92.00;;;;;;5116902;28;20562;-81
2021/01/08 06:07:36;;;;;;;34.80;23.52;;;3.40;95.10;;;;;;5098122;28;20192;-81
2021/01/08 06:10:03;;;;;;;32.70;22.88;;;2.90;96.90;;;;;;5098489;28;20194;-81
2021/01/08 06:12:38;;;;;;;44.80;30.65;;;2.80;97.10;;;;;;5098261;28;20219;-81
2021/01/08 06:15:11;;;;;;;52.08;34.72;;;3.00;96.60;;;;;;5116763;28;20180;-81
2021/01/08 06:17:38;;;;;;;51.22;40.33;;;2.90;97.40;;;;;;5116593;28;20217;-81
2021/01/08 06:20:05;;;;;;;52.47;42.28;;;2.70;97.60;;;;;;5116816;28;20184;-81
2021/01/08 06:22:41;;;;;;;46.92;36.50;;;2.50;98.10;;;;;;5116288;28;20191;-81
2021/01/08 06:25:09;;;;;;;53.42;38.28;;;2.50;99.10;;;;;;5116643;28;20194;-81
2021/01/08 06:27:35;;;;;;;37.75;29.77;;;2.50;98.90;;;;;;5097985;28;20221;-81
2021/01/08 06:30:06;;;;;;;47.03;35.92;;;2.50;98.60;;;;;;5116277;28;20187;-81
2021/01/08 06:32:33;;;;;;;50.38;35.42;;;2.50;98.50;;;;;;5097663;28;20208;-81
2021/01/08 06:35:09;;;;;;;56.00;38.35;;;2.40;98.50;;;;;;5111342;28;20189;-81
2021/01/08 06:37:40;;;;;;;50.28;36.20;;;2.50;98.60;;;;;;5113886;28;20561;-81
2021/01/08 06:40:10;;;;;;;41.85;29.63;;;2.50;98.90;;;;;;5077408;28;20199;-81
2021/01/08 06:43:02;;;;;;;42.65;29.60;;;2.60;98.70;;;;;;5077668;28;20192;-81
2021/01/08 06:45:28;;;;;;;46.42;32.90;;;2.50;98.80;;;;;;5095369;28;20258;-81
2021/01/08 06:48:02;;;;;;;60.10;40.10;;;2.50;98.60;;;;;;5095757;28;20180;-81
2021/01/08 06:50:35;;;;;;;47.67;34.65;;;2.50;98.90;;;;;;5095863;28;20396;-81
2021/01/08 06:53:11;;;;;;;49.75;34.17;;;2.50;99.10;;;;;;5077320;28;20196;-81
2021/01/08 06:55:45;;;;;;;40.38;28.50;;;2.50;98.70;;;;;;5077022;28;20180;-82
2021/01/08 06:58:18;;;;;;;39.17;28.42;;;2.50;99.20;;;;;;5076216;28;20180;-81
2021/01/08 07:00:52;;;;;;;39.83;27.13;;;2.50;99.00;;;;;;5077844;28;20212;-82
2021/01/08 07:03:22;;;;;;;39.47;26.63;;;2.50;98.70;;;;;;5077295;28;20233;-81
2021/01/08 07:05:48;;;;;;;35.20;26.45;;;2.50;99.00;;;;;;5094043;28;20599;-79
2021/01/08 07:08:16;;;;;;;40.55;27.95;;;2.40;98.60;;;;;;5084951;28;20245;-81
2021/01/08 07:10:49;;;;;;;34.92;27.23;;;2.40;98.80;;;;;;5076908;28;20185;-81
2021/01/08 07:13:29;;;;;;;41.75;28.80;;;2.50;99.50;;;;;;5095591;28;20595;-81
2021/01/08 07:15:55;;;;;;;43.20;32.42;;;2.60;99.40;;;;;;5097158;28;20180;-81
2021/01/08 07:18:26;;;;;;;48.20;35.40;;;2.60;99.40;;;;;;5089104;28;20686;-81
2021/01/08 07:20:58;;;;;;;55.92;37.20;;;2.60;99.60;;;;;;5097001;28;20397;-81
2021/01/08 07:23:28;;;;;;;53.42;35.22;;;2.60;99.20;;;;;;5108664;27;20179;-81
2021/01/08 07:25:55;;;;;;;64.78;40.08;;;2.60;99.50;;;;;;5102987;28;20191;-81
2021/01/08 07:28:21;;;;;;;72.05;42.38;;;2.70;98.90;;;;;;5094910;28;20644;-80
2021/01/08 07:31:07;;;;;;;62.53;39.60;;;2.60;98.90;;;;;;5115861;27;20274;-81
2021/01/08 07:33:33;;;;;;;54.22;32.53;;;2.60;99.30;;;;;;5076279;28;20246;-81
2021/01/08 07:36:27;;;;;;;48.70;31.63;;;2.70;99.30;;;;;;5107849;28;20184;-81
2021/01/08 07:38:54;;;;;;;47.75;32.67;;;2.60;98.80;;;;;;5091278;27;20498;-81
2021/01/08 07:41:36;;;;;;;42.90;29.70;;;2.70;98.60;;;;;;5102258;28;20223;-81
2021/01/08 07:44:03;;;;;;;41.83;29.60;;;2.70;98.60;;;;;;5096036;28;20196;-80
2021/01/08 07:46:33;;;;;;;41.70;29.80;;;2.70;98.60;;;;;;5100678;27;20271;-81
2021/01/08 07:49:01;;;;;;;39.72;27.83;;;2.70;98.50;;;;;;5135279;27;20213;-81
2021/01/08 07:51:46;;;;;;;39.03;28.45;;;2.70;98.60;;;;;;5131127;27;20203;-81
2021/01/08 07:54:16;;;;;;;43.88;29.35;;;2.70;98.50;;;;;;5114600;28;20182;-81
2021/01/08 07:57:04;;;;;;;41.28;29.20;;;2.60;98.60;;;;;;5096207;28;20613;-81
2021/01/08 07:59:30;;;;;;;48.15;31.63;;;2.60;98.80;;;;;;5092797;28;20283;-81
2021/01/08 08:01:56;;;;;;;46.50;32.13;;;2.60;98.90;;;;;;5120992;27;20226;-81
2021/01/08 08:04:25;;;;;;;42.73;31.27;;;2.70;98.80;;;;;;5092998;28;20232;-81
2021/01/08 08:06:51;;;;;;;50.67;31.80;;;2.70;98.90;;;;;;5101640;28;20256;-81
2021/01/08 08:09:17;;;;;;;42.22;30.55;;;2.70;98.80;;;;;;5095522;28;20661;-81
2021/01/08 08:11:43;;;;;;;42.00;30.07;;;2.70;98.90;;;;;;5082640;28;20203;-81
2021/01/08 08:14:20;;;;;;;44.30;30.60;;;2.80;98.90;;;;;;5113809;28;20179;-81
2021/01/08 08:16:46;;;;;;;39.97;29.40;;;2.90;99.10;;;;;;5113583;28;20424;-81
2021/01/08 08:19:13;;;;;;;43.35;29.95;;;2.90;98.90;;;;;;5081054;28;20195;-82
2021/01/08 08:21:46;;;;;;;43.45;30.75;;;3.00;98.90;;;;;;5081972;28;20549;-82
2021/01/08 08:24:16;;;;;;;43.72;31.13;;;3.00;98.50;;;;;;5078587;28;20184;-82
2021/01/08 08:26:43;;;;;;;49.30;33.13;;;3.00;98.20;;;;;;5081569;28;20184;-82
2021/01/08 08:29:17;;;;;;;44.33;32.67;;;3.00;98.60;;;;;;5091597;28;20184;-82
2021/01/08 08:31:47;;;;;;;55.45;39.65;;;3.00;99.30;;;;;;5114217;28;20235;-82
2021/01/08 08:34:15;;;;;;;78.35;50.22;;;3.10;98.50;;;;;;5113594;28;20190;-79
2021/01/08 08:36:41;;;;;;;86.13;56.33;;;3.20;98.70;;;;;;5114060;28;20187;-80
2021/01/08 08:39:13;;;;;;;82.20;48.40;;;3.20;98.90;;;;;;5115915;27;21395;-80
2021/01/08 08:41:41;;;;;;;66.20;45.22;;;3.20;99.00;;;;;;5128032;27;20651;-80
2021/01/08 08:44:11;;;;;;;54.50;36.97;;;3.20;98.50;;;;;;5095059;28;20203;-82
2021/01/08 08:46:53;;;;;;;49.13;35.95;;;3.20;98.80;;;;;;5108063;28;20223;-79
2021/01/08 08:49:33;;;;;;;48.90;35.15;;;3.10;98.60;;;;;;5097745;28;20180;-81
2021/01/08 08:51:59;;;;;;;51.05;36.47;;;3.10;98.60;;;;;;5102077;28;20207;-81
2021/01/08 08:54:25;;;;;;;54.40;39.08;;;3.10;98.80;;;;;;5112089;28;20644;-80
2021/01/08 08:56:55;;;;;;;50.58;37.60;;;3.30;98.20;;;;;;5095264;28;20192;-81
2021/01/08 08:59:35;;;;;;;46.80;33.70;;;3.30;98.90;;;;;;5113172;28;20581;-81
2021/01/08 09:02:01;;;;;;;51.42;37.47;;;3.40;97.90;;;;;;5095168;28;20199;-81
2021/01/08 09:04:27;;;;;;;52.00;35.60;;;3.40;98.00;;;;;;5094720;28;20188;-81
2021/01/08 09:06:59;;;;;;;58.63;40.07;;;3.40;97.90;;;;;;5113003;28;20191;-80
2021/01/08 09:09:28;;;;;;;54.25;40.05;;;3.40;97.60;;;;;;5095136;28;20180;-80
2021/01/08 09:12:25;;;;;;;68.88;45.55;;;3.50;97.70;;;;;;5113015;28;20285;-80
2021/01/08 09:14:57;;;;;;;73.03;46.10;;;3.50;97.60;;;;;;5093060;28;20177;-80
2021/01/08 09:17:26;;;;;;;61.25;44.17;;;3.50;97.70;;;;;;5095052;28;20193;-81
2021/01/08 09:19:56;;;;;;;55.88;42.65;;;3.50;97.10;;;;;;5094881;28;20192;-81
2021/01/08 09:22:23;;;;;;;60.25;43.70;;;3.60;97.00;;;;;;5115972;28;20180;-80
2021/01/08 09:24:50;;;;;;;62.28;44.35;;;3.70;97.20;;;;;;5098999;28;20188;-81
2021/01/08 09:27:17;;;;;;;53.63;41.08;;;3.70;97.00;;;;;;5115989;28;20202;-81
2021/01/08 09:29:44;;;;;;;47.25;36.60;;;3.70;97.20;;;;;;5078434;28;20192;-81
2021/01/08 09:32:10;;;;;;;44.95;31.52;;;3.70;96.90;;;;;;5088844;28;20216;-80
2021/01/08 09:34:37;;;;;;;38.23;26.07;;;3.70;96.20;;;;;;5091820;28;20585;-81
2021/01/08 09:37:16;;;;;;;34.90;26.33;;;3.70;95.60;;;;;;5116714;28;20469;-81
2021/01/08 09:39:43;;;;;;;33.75;25.85;;;3.60;96.00;;;;;;5109870;28;20180;-80
2021/01/08 09:42:11;;;;;;;36.63;26.55;;;3.70;96.00;;;;;;5108466;28;20196;-80
2021/01/08 09:44:39;;;;;;;38.35;26.75;;;3.70;95.80;;;;;;5078265;28;20218;-81
2021/01/08 09:47:10;;;;;;;34.63;25.88;;;3.70;96.10;;;;;;5097592;27;20234;-81
2021/01/08 09:49:50;;;;;;;33.88;25.92;;;3.60;96.20;;;;;;5078038;28;20549;-81
2021/01/08 09:52:16;;;;;;;37.67;25.75;;;3.70;96.60;;;;;;5089606;28;20360;-80
2021/01/08 09:54:51;;;;;;;36.13;24.70;;;3.70;95.90;;;;;;5116982;28;20176;-80
2021/01/08 09:57:36;;;;;;;29.83;23.83;;;3.70;95.70;;;;;;5098478;28;20183;-80
2021/01/08 10:00:04;;;;;;;35.03;25.00;;;3.60;95.30;;;;;;5117016;28;20184;-79
2021/01/08 10:02:43;;;;;;;34.60;25.63;;;3.70;95.40;;;;;;5098376;28;20655;-80
2021/01/08 10:05:29;;;;;;;35.30;23.73;;;3.70;95.70;;;;;;5116944;28;20176;-80
2021/01/08 10:07:57;;;;;;;36.75;26.00;;;3.70;96.30;;;;;;5094080;28;20207;-80
2021/01/08 10:10:25;;;;;;;32.80;24.95;;;3.60;96.10;;;;;;5125159;27;20191;-79
2021/01/08 10:12:53;;;;;;;35.75;27.20;;;3.70;96.40;;;;;;5102260;28;20694;-80
2021/01/08 10:18:40;;;;;;;37.95;26.90;;;3.70;96.10;;;;;;5111523;27;20701;-81
2021/01/08 10:21:08;;;;;;;38.43;27.23;;;3.90;96.20;;;;;;5097859;28;20200;-81
2021/01/08 10:23:39;;;;;;;32.35;25.30;;;3.90;96.20;;;;;;5116702;28;20179;-80
2021/01/08 10:26:13;;;;;;;35.83;25.42;;;4.00;95.70;;;;;;5098001;28;20577;-78
2021/01/08 10:28:55;;;;;;;36.50;25.85;;;4.00;95.90;;;;;;5116500;28;20233;-79
2021/01/08 10:31:22;;;;;;;35.80;27.17;;;4.10;95.50;;;;;;5098213;28;20568;-80
2021/01/08 10:33:48;;;;;;;34.10;26.58;;;4.20;95.20;;;;;;5096269;28;20191;-79
2021/01/08 10:36:14;;;;;;;34.63;25.63;;;4.20;95.10;;;;;;5097033;28;20192;-80
2021/01/08 10:38:43;;;;;;;37.55;26.90;;;4.10;95.10;;;;;;5113368;28;20180;-80
2021/01/08 10:41:09;;;;;;;37.50;26.65;;;4.20;95.80;;;;;;5096434;28;20192;-80
2021/01/08 10:43:35;;;;;;;34.15;25.48;;;4.20;95.50;;;;;;5107536;28;20260;-80
2021/01/08 10:46:04;;;;;;;31.40;24.57;;;4.30;95.60;;;;;;5117666;27;20218;-80
2021/01/08 10:48:30;;;;;;;34.60;26.42;;;4.40;95.50;;;;;;5121767;27;20187;-81
2021/01/08 10:50:56;;;;;;;44.42;29.27;;;4.40;95.40;;;;;;5115438;28;20188;-80
2021/01/08 10:53:22;;;;;;;48.13;29.98;;;4.40;95.10;;;;;;5116042;28;20188;-80
2021/01/08 10:55:48;;;;;;;50.63;30.83;;;4.40;95.30;;;;;;5115955;28;20187;-80
2021/01/08 10:58:15;;;;;;;41.93;29.00;;;4.50;94.70;;;;;;5097159;28;20545;-80
2021/01/08 11:00:47;;;;;;;40.53;27.90;;;4.40;95.40;;;;;;5115605;28;20651;-80
2021/01/08 11:03:13;;;;;;;39.00;27.38;;;4.40;94.80;;;;;;5115836;28;20506;-80
2021/01/08 11:05:40;;;;;;;36.13;26.37;;;4.40;94.90;;;;;;5114655;27;20183;-80
2021/01/08 11:08:07;;;;;;;32.15;24.80;;;4.30;94.70;;;;;;5115711;28;20478;-80
2021/01/08 11:10:33;;;;;;;35.33;25.50;;;4.30;94.40;;;;;;5096470;28;20203;-80
2021/01/08 11:12:58;;;;;;;34.90;26.67;;;4.40;94.60;;;;;;5115326;27;20219;-80
2021/01/08 11:15:24;;;;;;;30.77;24.43;;;4.50;94.80;;;;;;5115122;28;20408;-80
2021/01/08 11:17:50;;;;;;;31.23;23.57;;;4.30;94.40;;;;;;5091979;28;20431;-81
2021/01/08 11:20:16;;;;;;;32.70;24.57;;;4.30;94.10;;;;;;5117157;28;20192;-81
2021/01/08 11:22:44;;;;;;;33.28;23.55;;;4.40;94.60;;;;;;5123301;27;20187;-81
2021/01/08 11:25:13;;;;;;;30.17;19.52;;;4.40;94.50;;;;;;5131767;28;20179;-81
2021/01/08 11:27:39;;;;;;;26.88;21.52;;;4.50;93.60;;;;;;5109392;28;20190;-82
2021/01/08 11:30:06;;;;;;;34.47;23.98;;;4.40;94.10;;;;;;5125694;28;20701;-81
2021/01/08 11:32:32;;;;;;;36.58;26.98;;;4.50;94.50;;;;;;5123788;28;20235;-81
2021/01/08 11:34:58;;;;;;;34.43;27.60;;;4.50;94.50;;;;;;5110609;27;20184;-81
2021/01/08 11:37:23;;;;;;;34.17;24.57;;;4.50;93.90;;;;;;5139336;27;20434;-81
2021/01/08 11:39:49;;;;;;;32.33;23.67;;;4.50;94.80;;;;;;5132097;27;20198;-81
2021/01/08 11:42:15;;;;;;;27.07;19.23;;;4.60;93.70;;;;;;5126840;28;20544;-81
2021/01/08 11:44:42;;;;;;;31.52;21.30;;;5.40;94.60;;;;;;5100097;28;20592;-82
2021/01/08 11:47:07;;;;;;;28.50;20.88;;;6.50;93.90;;;;;;5104274;28;20231;-83
2021/01/08 11:49:33;;;;;;;30.47;22.90;;;7.00;88.80;;;;;;5097281;28;20237;-82
2021/01/08 11:51:59;;;;;;;27.90;19.90;;;6.00;90.30;;;;;;5115889;28;20216;-82
2021/01/08 11:54:25;;;;;;;24.60;20.47;;;5.50;91.30;;;;;;5123769;27;20435;-81
2021/01/08 11:56:51;;;;;;;31.20;21.90;;;5.30;92.30;;;;;;5127145;28;20214;-83
2021/01/08 11:59:17;;;;;;;30.08;22.42;;;5.20;92.80;;;;;;5082630;28;20383;-75
2021/01/08 12:01:42;;;;;;;30.60;22.40;;;5.20;92.30;;;;;;5106655;28;20309;-75
2021/01/08 12:04:10;;;;;;;29.73;20.83;;;5.10;92.40;;;;;;5106526;28;20905;-76
2021/01/08 12:06:35;;;;;;;26.13;20.25;;;4.90;92.70;;;;;;5083547;28;20191;-77
2021/01/08 12:09:01;;;;;;;27.60;22.47;;;5.00;93.10;;;;;;5109299;28;20535;-77
2021/01/08 12:11:28;;;;;;;29.80;22.77;;;5.00;93.50;;;;;;5120486;27;20611;-77
2021/01/08 12:13:54;;;;;;;29.63;20.60;;;5.00;93.80;;;;;;5087402;28;20488;-78
2021/01/08 12:16:33;;;;;;;30.75;22.27;;;5.00;92.20;;;;;;5111159;28;20305;-78
2021/01/08 12:18:59;;;;;;;28.63;21.80;;;4.90;93.20;;;;;;5109483;28;20198;-77
2021/01/08 12:21:28;;;;;;;24.25;19.25;;;4.90;92.60;;;;;;5108478;28;20194;-76
2021/01/08 12:23:54;;;;;;;29.67;21.65;;;4.80;92.00;;;;;;5111734;27;20187;-78
2021/01/08 12:26:20;;;;;;;30.23;21.17;;;4.70;92.60;;;;;;5116738;27;20274;-81
2021/01/08 12:28:47;;;;;;;30.67;22.35;;;4.60;93.20;;;;;;5092606;28;20642;-76
2021/01/08 12:31:13;;;;;;;31.63;23.52;;;4.70;92.70;;;;;;5092046;28;20216;-77
2021/01/08 12:33:41;;;;;;;34.00;22.77;;;4.60;93.50;;;;;;5113825;27;20551;-77
2021/01/08 12:36:09;;;;;;;31.45;21.90;;;4.70;93.10;;;;;;5091704;28;20391;-76
2021/01/08 12:38:35;;;;;;;25.55;17.42;;;4.70;93.40;;;;;;5091744;28;20208;-76
2021/01/08 12:41:01;;;;;;;28.08;20.65;;;5.00;93.50;;;;;;5109508;28;20290;-76
2021/01/08 12:43:26;;;;;;;27.43;19.67;;;4.80;91.90;;;;;;5109631;28;20274;-74
2021/01/08 12:45:52;;;;;;;28.17;20.63;;;4.70;92.10;;;;;;5106107;28;20363;-76